Lattimore, NC (28089)

10:03 PM EST on November 23, 2014 (GMT -0500)
Shelby Municipal | Change Station
CLOSE
Current Station
Airport
Location: Shelby,
Elevation: 846 ft
Nearby Weather Stations

Elev 846 ft 35.26 °N, 81.60 °W | Updated 8 minutes ago

Overcast
Overcast
49 °F
Feels Like 49 °F
N
0
Wind Variable Wind from North

Today
High -- | Low -- °F
--% Chance of Precip.
Yesterday
High -- | Low -- °F
Precip. -- in
7:09 AM 5:16 PM
Waxing Crescent, 3% visible
Pressure 29.74 in
Visibility 5.0 miles
Clouds Overcast 400 ft
Dew Point 49 °F
Humidity 99%
Rainfall 2.59 in
Snow Depth Not available.
UV 0 out of 12
Pollen .40 out of 12
Air Quality Not available.
Flu Activity Not available.
METAR KEHO 240255Z AUTO 00000KT 5SM BR OVC004 10/10 A2974 RMK AO2 60030 T00960095

More Conditions Fewer Conditions

Pressure 29.74 in
Visibility 5.0 miles
Clouds Overcast 400 ft
Dew Point 49 °F
Humidity 99%
Rainfall 2.59 in
Snow Depth Not available.
UV 0 out of 12
Pollen .40 out of 12
Air Quality Not available.
Flu Activity Not available.
METAR KEHO 240255Z AUTO 00000KT 5SM BR OVC004 10/10 A2974 RMK AO2 60030 T00960095

More Conditions Fewer Conditions

10-Day Weather Forecast

Almanac

Astronomy

Nov. 23, 2014 Rise Set
Actual Time
Civil Twilight
Nautical Twilight
Astronomical Twilight
Moon
Length of Visible Light
Length of Day
Tomorrow will be .
, % of the Moon is Illuminated

Today's Extremes

State Highs State Lows

Community

WunderPhotos

Upload Photos

1,773,257 photos uploaded!

WunderBlogs® & News

Nearby

Air Quality

  Air Quality AQ Index Pollutant
Not available.

Snow Depth

Station Depth Elevation

Earthquake Activity

City Distance Mag. Time & Date
Minimum magnitude displayed is 2.5.

Coastal Water Temperatures

Place Temperature

Nearby Weather Stations